sensor_id;sensor_type;location;lat;lon;timestamp;P1;durP1;ratioP1;P2;durP2;ratioP2
67195;SDS011;54122;53.538;49.366;2022-11-20T00:01:16;42.13;;;29.42;;
67195;SDS011;54122;53.538;49.366;2022-11-20T00:03:44;41.28;;;27.20;;
67195;SDS011;54122;53.538;49.366;2022-11-20T00:06:14;35.78;;;23.20;;
67195;SDS011;54122;53.538;49.366;2022-11-20T00:08:43;43.63;;;26.50;;
67195;SDS011;54122;53.538;49.366;2022-11-20T00:11:11;49.60;;;30.88;;
67195;SDS011;54122;53.538;49.366;2022-11-20T00:13:38;45.38;;;27.65;;
67195;SDS011;54122;53.538;49.366;2022-11-20T00:16:06;38.47;;;25.35;;
67195;SDS011;54122;53.538;49.366;2022-11-20T00:18:33;42.53;;;25.35;;
67195;SDS011;54122;53.538;49.366;2022-11-20T00:21:03;45.13;;;26.60;;
67195;SDS011;54122;53.538;49.366;2022-11-20T00:23:35;36.92;;;23.95;;
67195;SDS011;54122;53.538;49.366;2022-11-20T00:26:02;34.80;;;21.95;;
67195;SDS011;54122;53.538;49.366;2022-11-20T00:28:30;37.53;;;23.98;;
67195;SDS011;54122;53.538;49.366;2022-11-20T00:33:35;43.40;;;24.33;;
67195;SDS011;54122;53.538;49.366;2022-11-20T00:36:09;37.65;;;24.33;;
67195;SDS011;54122;53.538;49.366;2022-11-20T00:38:37;36.90;;;22.90;;
67195;SDS011;54122;53.538;49.366;2022-11-20T00:41:05;41.17;;;25.38;;
67195;SDS011;54122;53.538;49.366;2022-11-20T00:43:36;43.70;;;25.67;;
67195;SDS011;54122;53.538;49.366;2022-11-20T00:46:04;47.63;;;27.88;;
67195;SDS011;54122;53.538;49.366;2022-11-20T00:48:32;37.92;;;23.60;;
67195;SDS011;54122;53.538;49.366;2022-11-20T00:50:58;28.60;;;20.05;;
67195;SDS011;54122;53.538;49.366;2022-11-20T00:53:25;33.72;;;21.75;;
67195;SDS011;54122;53.538;49.366;2022-11-20T00:56:02;33.78;;;22.20;;
67195;SDS011;54122;53.538;49.366;2022-11-20T00:58:34;35.75;;;21.27;;
67195;SDS011;54122;53.538;49.366;2022-11-20T01:03:32;38.28;;;23.25;;
67195;SDS011;54122;53.538;49.366;2022-11-20T01:06:00;34.05;;;20.83;;
67195;SDS011;54122;53.538;49.366;2022-11-20T01:08:31;31.60;;;21.20;;
67195;SDS011;54122;53.538;49.366;2022-11-20T01:11:02;36.85;;;23.00;;
67195;SDS011;54122;53.538;49.366;2022-11-20T01:13:36;30.23;;;20.15;;
67195;SDS011;54122;53.538;49.366;2022-11-20T01:16:07;32.75;;;20.88;;
67195;SDS011;54122;53.538;49.366;2022-11-20T01:18:36;32.72;;;20.58;;
67195;SDS011;54122;53.538;49.366;2022-11-20T01:21:06;30.83;;;20.17;;
67195;SDS011;54122;53.538;49.366;2022-11-20T01:23:34;32.90;;;21.50;;
67195;SDS011;54122;53.538;49.366;2022-11-20T01:26:03;37.55;;;21.77;;
67195;SDS011;54122;53.538;49.366;2022-11-20T01:28:31;31.42;;;18.85;;
67195;SDS011;54122;53.538;49.366;2022-11-20T01:30:58;30.30;;;20.00;;
67195;SDS011;54122;53.538;49.366;2022-11-20T01:33:25;37.13;;;23.00;;
67195;SDS011;54122;53.538;49.366;2022-11-20T01:35:53;36.15;;;22.42;;
67195;SDS011;54122;53.538;49.366;2022-11-20T01:38:28;39.58;;;24.92;;
67195;SDS011;54122;53.538;49.366;2022-11-20T01:40:54;33.58;;;21.17;;
67195;SDS011;54122;53.538;49.366;2022-11-20T01:43:21;35.58;;;22.52;;
67195;SDS011;54122;53.538;49.366;2022-11-20T01:48:30;35.25;;;21.27;;
67195;SDS011;54122;53.538;49.366;2022-11-20T01:51:25;32.17;;;19.92;;
67195;SDS011;54122;53.538;49.366;2022-11-20T01:54:00;35.55;;;20.58;;
67195;SDS011;54122;53.538;49.366;2022-11-20T01:56:31;38.63;;;21.60;;
67195;SDS011;54122;53.538;49.366;2022-11-20T01:59:03;32.17;;;20.58;;
67195;SDS011;54122;53.538;49.366;2022-11-20T02:01:31;39.90;;;23.52;;
67195;SDS011;54122;53.538;49.366;2022-11-20T02:03:57;38.50;;;24.17;;
67195;SDS011;54122;53.538;49.366;2022-11-20T02:09:30;39.05;;;24.92;;
67195;SDS011;54122;53.538;49.366;2022-11-20T02:11:57;51.22;;;30.27;;
67195;SDS011;54122;53.538;49.366;2022-11-20T02:14:24;42.95;;;26.40;;
67195;SDS011;54122;53.538;49.366;2022-11-20T02:16:51;52.13;;;29.45;;
67195;SDS011;54122;53.538;49.366;2022-11-20T02:19:27;42.05;;;26.33;;
67195;SDS011;54122;53.538;49.366;2022-11-20T02:21:57;49.25;;;28.58;;
67195;SDS011;54122;53.538;49.366;2022-11-20T02:24:44;34.92;;;21.73;;
67195;SDS011;54122;53.538;49.366;2022-11-20T02:27:12;38.67;;;24.15;;
67195;SDS011;54122;53.538;49.366;2022-11-20T02:32:18;34.53;;;22.33;;
67195;SDS011;54122;53.538;49.366;2022-11-20T02:34:45;34.03;;;21.38;;
67195;SDS011;54122;53.538;49.366;2022-11-20T02:37:12;35.38;;;21.88;;
67195;SDS011;54122;53.538;49.366;2022-11-20T02:39:39;35.88;;;21.63;;
67195;SDS011;54122;53.538;49.366;2022-11-20T02:42:07;32.55;;;20.30;;
67195;SDS011;54122;53.538;49.366;2022-11-20T02:44:33;35.40;;;20.27;;
67195;SDS011;54122;53.538;49.366;2022-11-20T02:46:59;36.30;;;21.75;;
67195;SDS011;54122;53.538;49.366;2022-11-20T02:49:25;33.75;;;21.95;;
67195;SDS011;54122;53.538;49.366;2022-11-20T02:51:51;38.70;;;21.75;;
67195;SDS011;54122;53.538;49.366;2022-11-20T02:54:18;34.05;;;20.88;;
67195;SDS011;54122;53.538;49.366;2022-11-20T02:56:44;40.65;;;23.98;;
67195;SDS011;54122;53.538;49.366;2022-11-20T02:59:10;34.83;;;20.95;;
67195;SDS011;54122;53.538;49.366;2022-11-20T03:01:36;29.83;;;19.50;;
67195;SDS011;54122;53.538;49.366;2022-11-20T03:04:03;30.23;;;19.90;;
67195;SDS011;54122;53.538;49.366;2022-11-20T03:06:29;30.92;;;18.95;;
67195;SDS011;54122;53.538;49.366;2022-11-20T03:08:55;31.23;;;19.95;;
67195;SDS011;54122;53.538;49.366;2022-11-20T03:11:21;30.17;;;19.20;;
67195;SDS011;54122;53.538;49.366;2022-11-20T03:13:48;31.38;;;19.63;;
67195;SDS011;54122;53.538;49.366;2022-11-20T03:16:15;39.25;;;21.58;;
67195;SDS011;54122;53.538;49.366;2022-11-20T03:18:43;33.17;;;20.98;;
67195;SDS011;54122;53.538;49.366;2022-11-20T03:21:10;33.10;;;20.77;;
67195;SDS011;54122;53.538;49.366;2022-11-20T03:23:38;39.85;;;21.73;;
67195;SDS011;54122;53.538;49.366;2022-11-20T03:26:15;35.78;;;21.13;;
67195;SDS011;54122;53.538;49.366;2022-11-20T03:28:47;36.90;;;21.45;;
67195;SDS011;54122;53.538;49.366;2022-11-20T03:31:19;36.05;;;21.20;;
67195;SDS011;54122;53.538;49.366;2022-11-20T03:33:47;42.60;;;25.38;;
67195;SDS011;54122;53.538;49.366;2022-11-20T03:36:14;43.70;;;24.13;;
67195;SDS011;54122;53.538;49.366;2022-11-20T03:38:42;48.05;;;24.92;;
67195;SDS011;54122;53.538;49.366;2022-11-20T03:41:12;40.15;;;22.20;;
67195;SDS011;54122;53.538;49.366;2022-11-20T03:43:51;37.00;;;21.83;;
67195;SDS011;54122;53.538;49.366;2022-11-20T03:46:22;36.40;;;22.05;;
67195;SDS011;54122;53.538;49.366;2022-11-20T03:48:48;41.20;;;23.70;;
67195;SDS011;54122;53.538;49.366;2022-11-20T03:51:21;36.33;;;22.23;;
67195;SDS011;54122;53.538;49.366;2022-11-20T03:53:49;41.47;;;25.35;;
67195;SDS011;54122;53.538;49.366;2022-11-20T03:56:18;41.58;;;24.13;;
67195;SDS011;54122;53.538;49.366;2022-11-20T03:58:45;39.60;;;24.20;;
67195;SDS011;54122;53.538;49.366;2022-11-20T04:01:13;35.55;;;21.33;;
67195;SDS011;54122;53.538;49.366;2022-11-20T04:03:41;39.75;;;22.52;;
67195;SDS011;54122;53.538;49.366;2022-11-20T04:06:10;43.15;;;22.90;;
67195;SDS011;54122;53.538;49.366;2022-11-20T04:08:43;39.92;;;21.60;;
67195;SDS011;54122;53.538;49.366;2022-11-20T04:11:22;33.45;;;20.33;;
67195;SDS011;54122;53.538;49.366;2022-11-20T04:13:51;39.65;;;21.55;;
67195;SDS011;54122;53.538;49.366;2022-11-20T04:16:20;37.35;;;21.23;;
67195;SDS011;54122;53.538;49.366;2022-11-20T04:18:51;48.88;;;24.10;;
67195;SDS011;54122;53.538;49.366;2022-11-20T04:21:20;36.80;;;21.30;;
67195;SDS011;54122;53.538;49.366;2022-11-20T04:23:48;34.58;;;21.20;;
67195;SDS011;54122;53.538;49.366;2022-11-20T04:26:16;36.05;;;21.17;;
67195;SDS011;54122;53.538;49.366;2022-11-20T04:28:42;40.22;;;21.80;;
67195;SDS011;54122;53.538;49.366;2022-11-20T04:31:09;33.55;;;19.70;;
67195;SDS011;54122;53.538;49.366;2022-11-20T04:33:40;35.03;;;20.37;;
67195;SDS011;54122;53.538;49.366;2022-11-20T04:36:07;39.33;;;21.23;;
67195;SDS011;54122;53.538;49.366;2022-11-20T04:38:37;32.65;;;19.95;;
67195;SDS011;54122;53.538;49.366;2022-11-20T04:41:04;33.65;;;20.02;;
67195;SDS011;54122;53.538;49.366;2022-11-20T04:43:32;35.35;;;21.17;;
67195;SDS011;54122;53.538;49.366;2022-11-20T04:45:59;43.63;;;22.10;;
67195;SDS011;54122;53.538;49.366;2022-11-20T04:48:26;40.63;;;22.23;;
67195;SDS011;54122;53.538;49.366;2022-11-20T04:50:54;31.30;;;20.33;;
67195;SDS011;54122;53.538;49.366;2022-11-20T04:56:02;39.85;;;21.90;;
67195;SDS011;54122;53.538;49.366;2022-11-20T04:58:30;37.45;;;21.42;;
67195;SDS011;54122;53.538;49.366;2022-11-20T05:01:02;39.30;;;22.30;;
67195;SDS011;54122;53.538;49.366;2022-11-20T05:03:31;34.60;;;20.33;;
67195;SDS011;54122;53.538;49.366;2022-11-20T05:06:04;38.03;;;20.88;;
67195;SDS011;54122;53.538;49.366;2022-11-20T05:08:31;39.13;;;21.67;;
67195;SDS011;54122;53.538;49.366;2022-11-20T05:11:01;37.15;;;20.77;;
67195;SDS011;54122;53.538;49.366;2022-11-20T05:13:32;30.05;;;18.30;;
67195;SDS011;54122;53.538;49.366;2022-11-20T05:16:02;32.30;;;17.55;;
67195;SDS011;54122;53.538;49.366;2022-11-20T05:18:30;28.25;;;17.92;;
67195;SDS011;54122;53.538;49.366;2022-11-20T05:20:57;32.28;;;19.17;;
67195;SDS011;54122;53.538;49.366;2022-11-20T05:23:24;34.35;;;17.92;;
67195;SDS011;54122;53.538;49.366;2022-11-20T05:25:52;34.10;;;18.40;;
67195;SDS011;54122;53.538;49.366;2022-11-20T05:28:22;30.80;;;17.70;;
67195;SDS011;54122;53.538;49.366;2022-11-20T05:30:48;37.72;;;19.52;;
67195;SDS011;54122;53.538;49.366;2022-11-20T05:33:15;36.08;;;19.35;;
67195;SDS011;54122;53.538;49.366;2022-11-20T05:35:42;28.45;;;17.42;;
67195;SDS011;54122;53.538;49.366;2022-11-20T05:38:08;33.17;;;17.60;;
67195;SDS011;54122;53.538;49.366;2022-11-20T05:40:41;26.45;;;17.05;;
67195;SDS011;54122;53.538;49.366;2022-11-20T05:45:33;26.65;;;16.30;;
67195;SDS011;54122;53.538;49.366;2022-11-20T05:48:00;31.58;;;17.38;;
67195;SDS011;54122;53.538;49.366;2022-11-20T05:50:27;26.85;;;16.40;;
67195;SDS011;54122;53.538;49.366;2022-11-20T05:52:53;31.38;;;18.17;;
67195;SDS011;54122;53.538;49.366;2022-11-20T05:55:20;29.27;;;16.77;;
67195;SDS011;54122;53.538;49.366;2022-11-20T05:57:46;31.60;;;17.55;;
67195;SDS011;54122;53.538;49.366;2022-11-20T06:00:12;28.02;;;16.00;;
67195;SDS011;54122;53.538;49.366;2022-11-20T06:02:39;31.55;;;16.77;;
67195;SDS011;54122;53.538;49.366;2022-11-20T06:05:05;27.60;;;16.60;;
67195;SDS011;54122;53.538;49.366;2022-11-20T06:07:32;25.17;;;16.15;;
67195;SDS011;54122;53.538;49.366;2022-11-20T06:09:58;26.45;;;15.45;;
67195;SDS011;54122;53.538;49.366;2022-11-20T06:12:24;29.77;;;16.73;;
67195;SDS011;54122;53.538;49.366;2022-11-20T06:14:52;26.98;;;16.23;;
67195;SDS011;54122;53.538;49.366;2022-11-20T06:17:18;27.95;;;16.38;;
67195;SDS011;54122;53.538;49.366;2022-11-20T06:19:44;25.23;;;15.65;;
67195;SDS011;54122;53.538;49.366;2022-11-20T06:22:14;28.42;;;16.70;;
67195;SDS011;54122;53.538;49.366;2022-11-20T06:24:40;26.23;;;15.15;;
67195;SDS011;54122;53.538;49.366;2022-11-20T06:27:06;26.35;;;16.40;;
67195;SDS011;54122;53.538;49.366;2022-11-20T06:29:32;30.45;;;17.45;;
67195;SDS011;54122;53.538;49.366;2022-11-20T06:32:04;26.00;;;16.50;;
67195;SDS011;54122;53.538;49.366;2022-11-20T06:34:31;24.58;;;14.63;;
67195;SDS011;54122;53.538;49.366;2022-11-20T06:36:58;31.25;;;15.98;;
67195;SDS011;54122;53.538;49.366;2022-11-20T06:39:24;25.90;;;15.40;;
67195;SDS011;54122;53.538;49.366;2022-11-20T06:41:50;25.08;;;16.33;;
67195;SDS011;54122;53.538;49.366;2022-11-20T06:44:17;25.20;;;15.90;;
67195;SDS011;54122;53.538;49.366;2022-11-20T06:46:43;26.63;;;16.85;;
67195;SDS011;54122;53.538;49.366;2022-11-20T06:49:10;25.02;;;15.43;;
67195;SDS011;54122;53.538;49.366;2022-11-20T06:51:36;28.00;;;17.58;;
67195;SDS011;54122;53.538;49.366;2022-11-20T06:54:02;26.20;;;16.10;;
67195;SDS011;54122;53.538;49.366;2022-11-20T06:56:29;25.83;;;15.98;;
67195;SDS011;54122;53.538;49.366;2022-11-20T06:58:55;24.33;;;15.13;;
67195;SDS011;54122;53.538;49.366;2022-11-20T07:01:23;22.00;;;15.15;;
67195;SDS011;54122;53.538;49.366;2022-11-20T07:03:50;24.98;;;16.45;;
67195;SDS011;54122;53.538;49.366;2022-11-20T07:06:16;25.83;;;16.88;;
67195;SDS011;54122;53.538;49.366;2022-11-20T07:08:43;27.35;;;16.83;;
67195;SDS011;54122;53.538;49.366;2022-11-20T07:11:10;25.58;;;17.10;;
67195;SDS011;54122;53.538;49.366;2022-11-20T07:13:38;26.75;;;17.40;;
67195;SDS011;54122;53.538;49.366;2022-11-20T07:16:06;32.15;;;20.30;;
67195;SDS011;54122;53.538;49.366;2022-11-20T07:18:33;29.65;;;19.90;;
67195;SDS011;54122;53.538;49.366;2022-11-20T07:21:01;29.30;;;18.95;;
67195;SDS011;54122;53.538;49.366;2022-11-20T07:23:28;29.23;;;18.23;;
67195;SDS011;54122;53.538;49.366;2022-11-20T07:25:54;27.77;;;17.50;;
67195;SDS011;54122;53.538;49.366;2022-11-20T07:28:20;28.60;;;18.23;;
67195;SDS011;54122;53.538;49.366;2022-11-20T07:30:50;33.45;;;19.90;;
67195;SDS011;54122;53.538;49.366;2022-11-20T07:33:18;29.70;;;18.60;;
67195;SDS011;54122;53.538;49.366;2022-11-20T07:35:45;34.85;;;20.77;;
67195;SDS011;54122;53.538;49.366;2022-11-20T07:38:11;39.80;;;20.23;;
67195;SDS011;54122;53.538;49.366;2022-11-20T07:40:38;37.15;;;20.73;;
67195;SDS011;54122;53.538;49.366;2022-11-20T07:43:04;37.53;;;20.52;;
67195;SDS011;54122;53.538;49.366;2022-11-20T07:45:30;37.63;;;20.73;;
67195;SDS011;54122;53.538;49.366;2022-11-20T07:47:56;36.90;;;22.67;;
67195;SDS011;54122;53.538;49.366;2022-11-20T07:50:23;33.28;;;20.15;;
67195;SDS011;54122;53.538;49.366;2022-11-20T07:52:50;38.90;;;21.85;;
67195;SDS011;54122;53.538;49.366;2022-11-20T07:55:16;38.25;;;22.00;;
67195;SDS011;54122;53.538;49.366;2022-11-20T07:57:42;42.53;;;23.00;;
67195;SDS011;54122;53.538;49.366;2022-11-20T08:00:09;42.30;;;23.65;;
67195;SDS011;54122;53.538;49.366;2022-11-20T08:02:37;44.75;;;24.33;;
67195;SDS011;54122;53.538;49.366;2022-11-20T08:05:08;35.72;;;21.50;;
67195;SDS011;54122;53.538;49.366;2022-11-20T08:07:38;34.92;;;20.67;;
67195;SDS011;54122;53.538;49.366;2022-11-20T08:10:06;41.53;;;22.67;;
67195;SDS011;54122;53.538;49.366;2022-11-20T08:12:33;38.78;;;22.80;;
67195;SDS011;54122;53.538;49.366;2022-11-20T08:15:18;40.42;;;22.05;;
67195;SDS011;54122;53.538;49.366;2022-11-20T08:17:45;39.72;;;23.00;;
67195;SDS011;54122;53.538;49.366;2022-11-20T08:20:11;35.80;;;21.05;;
67195;SDS011;54122;53.538;49.366;2022-11-20T08:22:37;33.88;;;20.23;;
67195;SDS011;54122;53.538;49.366;2022-11-20T08:25:04;36.20;;;21.20;;
67195;SDS011;54122;53.538;49.366;2022-11-20T08:27:31;37.80;;;20.95;;
67195;SDS011;54122;53.538;49.366;2022-11-20T08:29:58;36.30;;;21.70;;
67195;SDS011;54122;53.538;49.366;2022-11-20T08:32:24;36.08;;;21.35;;
67195;SDS011;54122;53.538;49.366;2022-11-20T08:34:51;33.22;;;19.67;;
67195;SDS011;54122;53.538;49.366;2022-11-20T08:37:17;34.92;;;20.83;;
67195;SDS011;54122;53.538;49.366;2022-11-20T08:39:44;32.17;;;20.27;;
67195;SDS011;54122;53.538;49.366;2022-11-20T08:42:10;35.10;;;21.42;;
67195;SDS011;54122;53.538;49.366;2022-11-20T08:44:36;35.28;;;20.73;;
67195;SDS011;54122;53.538;49.366;2022-11-20T08:47:03;29.95;;;19.10;;
67195;SDS011;54122;53.538;49.366;2022-11-20T08:49:31;33.10;;;20.00;;
67195;SDS011;54122;53.538;49.366;2022-11-20T08:51:57;35.15;;;20.02;;
67195;SDS011;54122;53.538;49.366;2022-11-20T08:54:24;37.40;;;20.88;;
67195;SDS011;54122;53.538;49.366;2022-11-20T08:56:50;34.80;;;21.35;;
67195;SDS011;54122;53.538;49.366;2022-11-20T08:59:19;39.78;;;23.15;;
67195;SDS011;54122;53.538;49.366;2022-11-20T09:01:45;40.58;;;24.50;;
67195;SDS011;54122;53.538;49.366;2022-11-20T09:04:12;42.70;;;26.38;;
67195;SDS011;54122;53.538;49.366;2022-11-20T09:06:39;38.97;;;23.85;;
67195;SDS011;54122;53.538;49.366;2022-11-20T09:09:08;38.92;;;23.08;;
67195;SDS011;54122;53.538;49.366;2022-11-20T09:11:42;37.45;;;22.65;;
67195;SDS011;54122;53.538;49.366;2022-11-20T09:14:11;43.38;;;24.52;;
67195;SDS011;54122;53.538;49.366;2022-11-20T09:16:41;42.20;;;24.38;;
67195;SDS011;54122;53.538;49.366;2022-11-20T09:19:07;37.78;;;22.50;;
67195;SDS011;54122;53.538;49.366;2022-11-20T09:21:33;42.58;;;24.38;;
67195;SDS011;54122;53.538;49.366;2022-11-20T09:23:59;42.05;;;22.10;;
67195;SDS011;54122;53.538;49.366;2022-11-20T09:26:26;40.67;;;23.63;;
67195;SDS011;54122;53.538;49.366;2022-11-20T09:28:55;37.78;;;21.48;;
67195;SDS011;54122;53.538;49.366;2022-11-20T09:31:24;44.95;;;24.30;;
67195;SDS011;54122;53.538;49.366;2022-11-20T09:33:53;43.85;;;24.95;;
67195;SDS011;54122;53.538;49.366;2022-11-20T09:36:20;38.80;;;21.83;;
67195;SDS011;54122;53.538;49.366;2022-11-20T09:38:47;34.10;;;20.20;;
67195;SDS011;54122;53.538;49.366;2022-11-20T09:49:59;44.97;;;27.52;;
67195;SDS011;54122;53.538;49.366;2022-11-20T09:55:35;39.95;;;22.27;;
67195;SDS011;54122;53.538;49.366;2022-11-20T09:58:05;39.00;;;24.23;;
67195;SDS011;54122;53.538;49.366;2022-11-20T10:00:37;42.55;;;23.77;;
67195;SDS011;54122;53.538;49.366;2022-11-20T10:03:13;38.05;;;21.48;;
67195;SDS011;54122;53.538;49.366;2022-11-20T10:05:52;43.60;;;25.27;;
67195;SDS011;54122;53.538;49.366;2022-11-20T10:08:24;40.03;;;23.58;;
67195;SDS011;54122;53.538;49.366;2022-11-20T10:11:04;39.80;;;23.98;;
67195;SDS011;54122;53.538;49.366;2022-11-20T10:16:53;245.10;;;137.15;;
67195;SDS011;54122;53.538;49.366;2022-11-20T10:19:51;58.03;;;30.90;;
67195;SDS011;54122;53.538;49.366;2022-11-20T10:30:15;40.28;;;24.00;;
67195;SDS011;54122;53.538;49.366;2022-11-20T10:32:46;52.05;;;30.83;;
67195;SDS011;54122;53.538;49.366;2022-11-20T10:35:39;65.60;;;34.60;;
67195;SDS011;54122;53.538;49.366;2022-11-20T10:38:12;42.90;;;25.75;;
67195;SDS011;54122;53.538;49.366;2022-11-20T10:40:48;42.90;;;23.83;;
67195;SDS011;54122;53.538;49.366;2022-11-20T10:43:44;43.97;;;23.80;;
67195;SDS011;54122;53.538;49.366;2022-11-20T10:46:14;41.58;;;24.05;;
67195;SDS011;54122;53.538;49.366;2022-11-20T10:48:43;35.85;;;21.35;;
67195;SDS011;54122;53.538;49.366;2022-11-20T10:59:25;44.47;;;23.70;;
67195;SDS011;54122;53.538;49.366;2022-11-20T11:02:20;38.22;;;20.30;;
67195;SDS011;54122;53.538;49.366;2022-11-20T11:04:54;37.15;;;21.77;;
67195;SDS011;54122;53.538;49.366;2022-11-20T11:07:30;36.83;;;21.23;;
67195;SDS011;54122;53.538;49.366;2022-11-20T11:10:01;42.25;;;23.92;;
67195;SDS011;54122;53.538;49.366;2022-11-20T11:12:38;42.72;;;23.23;;
67195;SDS011;54122;53.538;49.366;2022-11-20T11:15:12;46.25;;;25.58;;
67195;SDS011;54122;53.538;49.366;2022-11-20T11:17:54;50.47;;;26.00;;
67195;SDS011;54122;53.538;49.366;2022-11-20T11:20:24;52.13;;;27.38;;
67195;SDS011;54122;53.538;49.366;2022-11-20T11:22:52;53.97;;;29.40;;
67195;SDS011;54122;53.538;49.366;2022-11-20T11:25:33;37.67;;;22.40;;
67195;SDS011;54122;53.538;49.366;2022-11-20T11:30:45;36.08;;;21.65;;
67195;SDS011;54122;53.538;49.366;2022-11-20T11:33:21;35.38;;;22.25;;
67195;SDS011;54122;53.538;49.366;2022-11-20T11:35:53;38.95;;;22.80;;
67195;SDS011;54122;53.538;49.366;2022-11-20T11:41:04;39.00;;;21.35;;
67195;SDS011;54122;53.538;49.366;2022-11-20T11:43:34;40.78;;;22.75;;
67195;SDS011;54122;53.538;49.366;2022-11-20T11:51:38;41.35;;;23.30;;
67195;SDS011;54122;53.538;49.366;2022-11-20T11:54:15;35.80;;;22.23;;
67195;SDS011;54122;53.538;49.366;2022-11-20T11:56:49;34.40;;;20.27;;
67195;SDS011;54122;53.538;49.366;2022-11-20T11:59:22;40.75;;;22.55;;
67195;SDS011;54122;53.538;49.366;2022-11-20T12:02:00;37.60;;;24.13;;
67195;SDS011;54122;53.538;49.366;2022-11-20T12:07:34;36.25;;;22.35;;
67195;SDS011;54122;53.538;49.366;2022-11-20T12:10:18;31.70;;;19.90;;
67195;SDS011;54122;53.538;49.366;2022-11-20T12:12:47;38.05;;;21.55;;
67195;SDS011;54122;53.538;49.366;2022-11-20T12:15:23;41.75;;;24.00;;
67195;SDS011;54122;53.538;49.366;2022-11-20T12:17:54;41.35;;;24.17;;
67195;SDS011;54122;53.538;49.366;2022-11-20T12:20:21;40.15;;;22.42;;
67195;SDS011;54122;53.538;49.366;2022-11-20T12:22:58;29.42;;;18.33;;
67195;SDS011;54122;53.538;49.366;2022-11-20T12:25:34;43.58;;;27.02;;
67195;SDS011;54122;53.538;49.366;2022-11-20T12:44:52;40.40;;;23.02;;
67195;SDS011;54122;53.538;49.366;2022-11-20T12:53:05;70.30;;;37.13;;
67195;SDS011;54122;53.538;49.366;2022-11-20T13:04:49;57.78;;;30.40;;
67195;SDS011;54122;53.538;49.366;2022-11-20T13:07:19;66.20;;;32.78;;
67195;SDS011;54122;53.538;49.366;2022-11-20T13:09:48;72.57;;;33.40;;
67195;SDS011;54122;53.538;49.366;2022-11-20T13:12:30;67.38;;;34.45;;
67195;SDS011;54122;53.538;49.366;2022-11-20T13:18:13;84.75;;;38.40;;
67195;SDS011;54122;53.538;49.366;2022-11-20T13:20:41;89.43;;;39.45;;
67195;SDS011;54122;53.538;49.366;2022-11-20T13:23:22;80.18;;;38.97;;
67195;SDS011;54122;53.538;49.366;2022-11-20T13:25:52;88.35;;;39.50;;
67195;SDS011;54122;53.538;49.366;2022-11-20T13:28:39;74.57;;;36.33;;
67195;SDS011;54122;53.538;49.366;2022-11-20T13:31:09;74.60;;;36.35;;
67195;SDS011;54122;53.538;49.366;2022-11-20T13:34:02;65.70;;;34.38;;
67195;SDS011;54122;53.538;49.366;2022-11-20T13:36:31;70.90;;;35.28;;
67195;SDS011;54122;53.538;49.366;2022-11-20T13:38:58;78.32;;;34.33;;
67195;SDS011;54122;53.538;49.366;2022-11-20T13:41:35;56.30;;;29.30;;
67195;SDS011;54122;53.538;49.366;2022-11-20T13:44:08;52.38;;;29.63;;
67195;SDS011;54122;53.538;49.366;2022-11-20T13:46:36;51.00;;;27.73;;
67195;SDS011;54122;53.538;49.366;2022-11-20T13:49:08;50.80;;;29.23;;
67195;SDS011;54122;53.538;49.366;2022-11-20T13:51:43;54.80;;;29.55;;
67195;SDS011;54122;53.538;49.366;2022-11-20T14:02:20;47.55;;;27.27;;
67195;SDS011;54122;53.538;49.366;2022-11-20T14:04:49;43.78;;;24.70;;
67195;SDS011;54122;53.538;49.366;2022-11-20T14:07:18;40.50;;;21.33;;
67195;SDS011;54122;53.538;49.366;2022-11-20T14:09:51;46.00;;;24.63;;
67195;SDS011;54122;53.538;49.366;2022-11-20T14:12:20;41.63;;;23.13;;
67195;SDS011;54122;53.538;49.366;2022-11-20T14:14:57;47.08;;;24.25;;
67195;SDS011;54122;53.538;49.366;2022-11-20T14:17:31;44.13;;;24.17;;
67195;SDS011;54122;53.538;49.366;2022-11-20T14:20:01;49.95;;;25.10;;
67195;SDS011;54122;53.538;49.366;2022-11-20T14:22:30;48.15;;;25.10;;
67195;SDS011;54122;53.538;49.366;2022-11-20T14:25:17;55.00;;;26.35;;
67195;SDS011;54122;53.538;49.366;2022-11-20T14:27:51;54.15;;;26.85;;
67195;SDS011;54122;53.538;49.366;2022-11-20T14:30:21;56.30;;;27.65;;
67195;SDS011;54122;53.538;49.366;2022-11-20T14:32:53;56.33;;;27.95;;
67195;SDS011;54122;53.538;49.366;2022-11-20T14:35:25;54.00;;;27.83;;
67195;SDS011;54122;53.538;49.366;2022-11-20T14:37:54;66.88;;;32.00;;
67195;SDS011;54122;53.538;49.366;2022-11-20T14:40:26;64.28;;;29.33;;
67195;SDS011;54122;53.538;49.366;2022-11-20T14:42:58;70.78;;;29.83;;
67195;SDS011;54122;53.538;49.366;2022-11-20T14:45:25;78.20;;;31.75;;
67195;SDS011;54122;53.538;49.366;2022-11-20T14:47:56;63.55;;;26.83;;
67195;SDS011;54122;53.538;49.366;2022-11-20T14:50:29;67.20;;;27.47;;
67195;SDS011;54122;53.538;49.366;2022-11-20T14:52:56;66.20;;;28.63;;
67195;SDS011;54122;53.538;49.366;2022-11-20T14:55:34;74.82;;;31.90;;
67195;SDS011;54122;53.538;49.366;2022-11-20T14:58:21;72.82;;;28.20;;
67195;SDS011;54122;53.538;49.366;2022-11-20T15:03:22;77.45;;;28.42;;
67195;SDS011;54122;53.538;49.366;2022-11-20T15:05:58;74.78;;;28.45;;
67195;SDS011;54122;53.538;49.366;2022-11-20T15:08:25;86.25;;;28.45;;
67195;SDS011;54122;53.538;49.366;2022-11-20T15:10:51;60.25;;;27.35;;
67195;SDS011;54122;53.538;49.366;2022-11-20T15:16:18;69.15;;;28.23;;
67195;SDS011;54122;53.538;49.366;2022-11-20T15:18:47;76.20;;;31.10;;
67195;SDS011;54122;53.538;49.366;2022-11-20T15:21:18;71.60;;;29.75;;
67195;SDS011;54122;53.538;49.366;2022-11-20T15:23:46;70.25;;;31.15;;
67195;SDS011;54122;53.538;49.366;2022-11-20T15:26:14;74.88;;;30.42;;
67195;SDS011;54122;53.538;49.366;2022-11-20T15:28:46;85.18;;;31.55;;
67195;SDS011;54122;53.538;49.366;2022-11-20T15:31:17;70.30;;;31.52;;
67195;SDS011;54122;53.538;49.366;2022-11-20T15:33:49;88.13;;;31.75;;
67195;SDS011;54122;53.538;49.366;2022-11-20T15:36:16;90.15;;;37.22;;
67195;SDS011;54122;53.538;49.366;2022-11-20T15:38:45;94.18;;;39.83;;
67195;SDS011;54122;53.538;49.366;2022-11-20T15:41:13;120.35;;;43.72;;
67195;SDS011;54122;53.538;49.366;2022-11-20T15:43:40;123.82;;;46.70;;
67195;SDS011;54122;53.538;49.366;2022-11-20T15:46:10;132.98;;;47.83;;
67195;SDS011;54122;53.538;49.366;2022-11-20T15:48:45;150.95;;;63.53;;
67195;SDS011;54122;53.538;49.366;2022-11-20T15:51:39;122.60;;;50.58;;
67195;SDS011;54122;53.538;49.366;2022-11-20T15:54:13;133.88;;;51.75;;
67195;SDS011;54122;53.538;49.366;2022-11-20T15:56:43;127.90;;;50.97;;
67195;SDS011;54122;53.538;49.366;2022-11-20T15:59:17;174.00;;;58.97;;
67195;SDS011;54122;53.538;49.366;2022-11-20T16:01:45;140.00;;;53.13;;
67195;SDS011;54122;53.538;49.366;2022-11-20T16:04:14;156.15;;;57.10;;
67195;SDS011;54122;53.538;49.366;2022-11-20T16:06:42;155.60;;;56.47;;
67195;SDS011;54122;53.538;49.366;2022-11-20T16:09:09;147.55;;;55.63;;
67195;SDS011;54122;53.538;49.366;2022-11-20T16:11:36;130.90;;;51.83;;
67195;SDS011;54122;53.538;49.366;2022-11-20T16:14:03;141.20;;;52.83;;
67195;SDS011;54122;53.538;49.366;2022-11-20T16:16:57;145.20;;;52.45;;